createdAt,value
2022-12-25T00:00:16.657Z,38.25
2022-12-25T00:02:48.614Z,36.63
2022-12-25T00:05:16.494Z,42.20
2022-12-25T00:07:44.400Z,38.88
2022-12-25T00:10:12.234Z,45.45
2022-12-25T00:12:40.254Z,32.88
2022-12-25T00:15:08.534Z,44.50
2022-12-25T00:17:36.451Z,33.97
2022-12-25T00:20:04.827Z,32.92
2022-12-25T00:22:32.692Z,39.30
2022-12-25T00:25:00.561Z,29.08
2022-12-25T00:27:31.138Z,39.72
2022-12-25T00:29:58.900Z,30.60
2022-12-25T00:32:26.805Z,32.95
2022-12-25T00:34:54.799Z,33.97
2022-12-25T00:37:22.631Z,30.48
2022-12-25T00:39:50.502Z,37.33
2022-12-25T00:42:21.354Z,24.45
2022-12-25T00:44:50.232Z,30.98
2022-12-25T00:47:18.962Z,39.08
2022-12-25T00:49:46.913Z,33.97
2022-12-25T00:52:15.356Z,27.48
2022-12-25T00:54:43.318Z,33.15
2022-12-25T00:57:11.258Z,31.83
2022-12-25T00:59:39.048Z,33.80
2022-12-25T01:02:25.487Z,37.80
2022-12-25T01:04:57.381Z,28.30
2022-12-25T01:07:26.683Z,30.05
2022-12-25T01:10:13.330Z,29.13
2022-12-25T01:12:43.262Z,39.05
2022-12-25T01:15:13.455Z,29.95
2022-12-25T01:17:42.577Z,33.60
2022-12-25T01:20:11.416Z,32.70
2022-12-25T01:22:39.466Z,34.15
2022-12-25T01:25:07.765Z,29.35
2022-12-25T01:27:36.233Z,28.63
2022-12-25T01:30:05.396Z,33.40
2022-12-25T01:32:33.303Z,37.85
2022-12-25T01:35:01.153Z,30.33
2022-12-25T01:37:29.045Z,30.17
2022-12-25T01:39:56.948Z,24.60
2022-12-25T01:42:24.865Z,30.85
2022-12-25T01:44:52.636Z,22.48
2022-12-25T01:47:20.428Z,31.00
2022-12-25T01:49:50.888Z,32.63
2022-12-25T01:52:24.663Z,25.90
2022-12-25T01:54:59.313Z,24.55
2022-12-25T01:57:32.644Z,24.13
2022-12-25T02:00:01.773Z,30.10
2022-12-25T02:02:33.095Z,30.38
2022-12-25T02:05:12.037Z,27.48
2022-12-25T02:07:41.405Z,24.45
2022-12-25T02:10:12.037Z,26.45
2022-12-25T02:12:43.272Z,28.15
2022-12-25T02:15:20.995Z,27.23
2022-12-25T02:17:54.975Z,31.70
2022-12-25T02:20:31.637Z,30.00
2022-12-25T02:23:20.423Z,29.85
2022-12-25T02:26:09.841Z,26.52
2022-12-25T02:29:06.538Z,19.15
2022-12-25T02:31:56.021Z,26.02
2022-12-25T02:34:38.118Z,20.52
2022-12-25T02:37:32.656Z,30.42
2022-12-25T02:40:05.569Z,20.38
2022-12-25T02:43:17.665Z,21.77
2022-12-25T02:46:13.441Z,20.75
2022-12-25T02:51:53.075Z,23.45
2022-12-25T02:54:47.387Z,22.23
2022-12-25T02:57:36.848Z,24.25
2022-12-25T03:00:24.869Z,22.23
2022-12-25T03:03:13.073Z,21.95
2022-12-25T03:06:01.138Z,24.25
2022-12-25T03:08:36.493Z,26.15
2022-12-25T03:11:27.423Z,25.30
2022-12-25T03:14:26.064Z,24.40
2022-12-25T03:17:00.249Z,30.02
2022-12-25T03:19:51.897Z,27.75
2022-12-25T03:22:45.893Z,27.88
2022-12-25T03:25:33.175Z,21.40
2022-12-25T03:28:01.914Z,24.00
2022-12-25T03:31:06.012Z,29.90
2022-12-25T03:34:11.608Z,23.65
2022-12-25T03:37:11.969Z,28.23
2022-12-25T03:39:55.393Z,26.67
2022-12-25T03:42:53.787Z,24.23
2022-12-25T03:46:04.392Z,22.35
2022-12-25T03:48:54.675Z,28.02
2022-12-25T03:51:49.820Z,29.88
2022-12-25T03:54:41.912Z,20.65
2022-12-25T03:57:30.226Z,23.13
2022-12-25T04:00:16.691Z,24.92
2022-12-25T04:03:03.210Z,20.70
2022-12-25T04:05:49.805Z,23.83
2022-12-25T04:08:36.439Z,23.77
2022-12-25T04:11:22.923Z,22.10
2022-12-25T04:14:09.485Z,27.38
2022-12-25T04:16:56.362Z,23.05
2022-12-25T04:19:42.791Z,21.10
2022-12-25T04:22:29.190Z,21.10
2022-12-25T04:25:15.800Z,20.27
2022-12-25T04:28:01.980Z,23.90
2022-12-25T04:30:48.779Z,25.27
2022-12-25T04:33:35.581Z,24.60
2022-12-25T04:36:09.317Z,25.95
2022-12-25T04:38:38.008Z,18.73
2022-12-25T04:41:06.578Z,23.65
2022-12-25T04:43:34.442Z,24.42
2022-12-25T04:46:02.945Z,20.48
2022-12-25T04:48:33.144Z,18.90
2022-12-25T04:51:17.497Z,19.45
2022-12-25T04:53:46.494Z,20.47
2022-12-25T04:56:15.172Z,20.60
2022-12-25T04:58:44.214Z,15.18
2022-12-25T05:01:13.280Z,15.18
2022-12-25T05:03:41.722Z,15.48
2022-12-25T05:06:09.770Z,15.85
2022-12-25T05:08:37.923Z,14.35
2022-12-25T05:11:11.033Z,15.38
2022-12-25T05:13:39.604Z,9.90
2022-12-25T05:16:12.441Z,16.30
2022-12-25T05:18:40.558Z,16.77
2022-12-25T05:21:09.484Z,7.90
2022-12-25T05:23:37.514Z,14.85
2022-12-25T05:26:07.192Z,21.30
2022-12-25T05:28:36.362Z,12.40
2022-12-25T05:31:04.346Z,12.18
2022-12-25T05:33:32.299Z,11.10
2022-12-25T05:36:04.305Z,15.63
2022-12-25T05:38:32.275Z,16.80
2022-12-25T05:41:00.558Z,14.90
2022-12-25T05:43:28.926Z,13.15
2022-12-25T05:45:57.020Z,15.43
2022-12-25T05:48:24.891Z,14.35
2022-12-25T05:50:52.796Z,13.15
2022-12-25T05:53:20.692Z,12.77
2022-12-25T05:55:48.632Z,11.80
2022-12-25T05:58:16.425Z,10.73
2022-12-25T06:00:44.863Z,13.85
2022-12-25T06:03:12.809Z,13.65
2022-12-25T06:05:40.739Z,13.68
2022-12-25T06:08:08.585Z,15.07
2022-12-25T06:10:37.140Z,12.10
2022-12-25T06:13:05.110Z,12.73
2022-12-25T06:15:33.712Z,10.50
2022-12-25T06:18:01.833Z,12.45
2022-12-25T06:20:30.248Z,9.80
2022-12-25T06:22:58.069Z,18.27
2022-12-25T06:25:26.021Z,13.30
2022-12-25T06:27:53.896Z,15.20
2022-12-25T06:30:21.758Z,14.55
2022-12-25T06:32:49.649Z,14.95
2022-12-25T06:35:17.574Z,12.52
2022-12-25T06:37:45.424Z,15.82
2022-12-25T06:40:13.496Z,15.32
2022-12-25T06:42:41.548Z,14.98
2022-12-25T06:45:09.866Z,13.05
2022-12-25T06:47:40.166Z,12.52
2022-12-25T06:50:08.371Z,11.45
2022-12-25T06:52:36.180Z,16.80
2022-12-25T06:55:04.111Z,15.90
2022-12-25T06:57:32.401Z,13.75
2022-12-25T07:00:00.243Z,14.27
2022-12-25T07:02:28.413Z,18.40
2022-12-25T07:04:56.619Z,17.77
2022-12-25T07:07:24.472Z,15.85
2022-12-25T07:09:52.528Z,17.27
2022-12-25T07:12:23.625Z,17.15
2022-12-25T07:14:55.655Z,20.02
2022-12-25T07:17:24.392Z,15.23
2022-12-25T07:19:52.679Z,20.30
2022-12-25T07:22:20.652Z,15.57
2022-12-25T07:24:48.447Z,15.98
2022-12-25T07:27:16.381Z,14.65
2022-12-25T07:29:44.253Z,19.90
2022-12-25T07:32:12.326Z,15.05
2022-12-25T07:34:40.263Z,17.75
2022-12-25T07:37:08.266Z,14.05
2022-12-25T07:39:36.225Z,21.48
2022-12-25T07:42:04.306Z,13.43
2022-12-25T07:44:32.489Z,22.63
2022-12-25T07:47:00.378Z,14.90
2022-12-25T07:49:28.293Z,16.05
2022-12-25T07:51:56.220Z,15.95
2022-12-25T07:54:24.965Z,21.45
2022-12-25T07:56:53.417Z,15.38
2022-12-25T07:59:21.485Z,16.10
2022-12-25T08:01:50.913Z,16.90
2022-12-25T08:04:19.122Z,18.13
2022-12-25T08:06:47.107Z,16.30
2022-12-25T08:09:15.107Z,15.70
2022-12-25T08:11:47.156Z,18.85
2022-12-25T08:14:15.678Z,17.98
2022-12-25T08:16:44.518Z,17.55
2022-12-25T08:19:12.798Z,24.77
2022-12-25T08:21:40.634Z,15.20
2022-12-25T08:24:08.701Z,13.60
2022-12-25T08:26:36.536Z,12.40
2022-12-25T08:29:04.524Z,15.93
2022-12-25T08:31:35.785Z,13.27
2022-12-25T08:34:06.971Z,14.85
2022-12-25T08:36:34.982Z,14.15
2022-12-25T08:39:03.651Z,15.45
2022-12-25T08:41:32.362Z,14.93
2022-12-25T08:44:00.249Z,14.98
2022-12-25T08:46:28.319Z,20.15
2022-12-25T08:48:56.899Z,14.57
2022-12-25T08:51:25.944Z,17.33
2022-12-25T08:54:00.281Z,15.75
2022-12-25T08:56:29.088Z,17.50
2022-12-25T08:58:56.915Z,14.82
2022-12-25T09:01:24.865Z,15.45
2022-12-25T09:03:52.963Z,17.45
2022-12-25T09:06:20.841Z,19.35
2022-12-25T09:08:49.983Z,14.70
2022-12-25T09:11:19.653Z,19.55
2022-12-25T09:13:48.812Z,15.40
2022-12-25T09:16:20.444Z,13.43
2022-12-25T09:18:49.098Z,12.30
2022-12-25T09:21:18.243Z,13.75
2022-12-25T09:23:46.351Z,14.88
2022-12-25T09:26:16.818Z,15.65
2022-12-25T09:28:51.393Z,14.77
2022-12-25T09:31:21.857Z,13.60
2022-12-25T09:33:50.788Z,17.10
2022-12-25T09:36:21.274Z,15.05
2022-12-25T09:38:49.471Z,12.35
2022-12-25T09:41:26.783Z,13.43
2022-12-25T09:44:02.202Z,14.32
2022-12-25T09:46:45.075Z,11.93
2022-12-25T09:49:37.144Z,14.23
2022-12-25T09:52:20.592Z,15.02
2022-12-25T09:55:03.871Z,13.98
2022-12-25T09:57:33.808Z,12.13
2022-12-25T10:00:01.719Z,18.55
2022-12-25T10:03:10.221Z,16.88
2022-12-25T10:06:11.736Z,13.45
2022-12-25T10:08:57.474Z,16.17
2022-12-25T10:11:52.343Z,13.15
2022-12-25T10:14:20.368Z,13.95
2022-12-25T10:17:14.611Z,16.02
2022-12-25T10:20:01.298Z,13.02
2022-12-25T10:22:52.772Z,12.65
2022-12-25T10:25:23.765Z,10.65
2022-12-25T10:27:59.484Z,14.88
2022-12-25T10:30:28.993Z,14.65
2022-12-25T10:32:57.656Z,13.93
2022-12-25T10:35:28.002Z,12.27
2022-12-25T10:38:17.017Z,12.00
2022-12-25T10:40:55.763Z,15.20
2022-12-25T10:43:49.411Z,13.95
2022-12-25T10:46:18.392Z,17.55
2022-12-25T10:48:55.982Z,14.13
2022-12-25T10:51:34.606Z,13.88
2022-12-25T10:54:04.573Z,15.88
2022-12-25T10:56:32.393Z,15.30
2022-12-25T10:59:10.169Z,14.73
2022-12-25T11:01:38.180Z,13.80
2022-12-25T11:04:06.144Z,12.43
2022-12-25T11:06:34.449Z,12.88
2022-12-25T11:09:03.528Z,12.57
2022-12-25T11:11:32.013Z,11.38
2022-12-25T11:14:01.914Z,13.35
2022-12-25T11:16:37.792Z,12.07
2022-12-25T11:19:27.505Z,13.88
2022-12-25T11:21:58.271Z,12.82
2022-12-25T11:24:31.883Z,14.27
2022-12-25T11:27:06.284Z,11.02
2022-12-25T11:29:34.081Z,15.05
2022-12-25T11:32:04.915Z,12.43
2022-12-25T11:34:46.657Z,15.45
2022-12-25T11:37:48.313Z,12.90
2022-12-25T11:40:41.620Z,11.48
2022-12-25T11:43:23.521Z,13.02
2022-12-25T11:46:18.437Z,13.15
2022-12-25T11:48:56.042Z,14.63
2022-12-25T11:51:32.167Z,11.80
2022-12-25T11:54:16.034Z,12.02
2022-12-25T11:56:43.915Z,15.90
2022-12-25T11:59:50.039Z,12.07
2022-12-25T12:02:36.606Z,12.25
2022-12-25T12:05:33.802Z,13.18
2022-12-25T12:08:04.732Z,12.38
2022-12-25T12:11:15.577Z,11.70
2022-12-25T12:14:10.726Z,13.65
2022-12-25T12:16:38.779Z,14.00
2022-12-25T12:19:34.818Z,15.85
2022-12-25T12:22:04.847Z,15.35
2022-12-25T12:24:44.139Z,15.30
2022-12-25T12:27:18.187Z,14.60
2022-12-25T12:29:50.607Z,15.07
2022-12-25T12:32:27.813Z,20.98
2022-12-25T12:34:56.770Z,15.18
2022-12-25T12:37:34.098Z,17.73
2022-12-25T12:40:02.804Z,18.00
2022-12-25T12:42:35.991Z,13.48
2022-12-25T12:45:17.823Z,17.70
2022-12-25T12:47:48.503Z,15.95
2022-12-25T12:50:34.184Z,17.13
2022-12-25T12:53:22.364Z,12.52
2022-12-25T12:55:51.559Z,12.63
2022-12-25T12:58:36.666Z,16.70
2022-12-25T13:01:26.091Z,14.75
2022-12-25T13:03:56.968Z,15.85
2022-12-25T13:06:54.071Z,16.75
2022-12-25T13:09:43.701Z,14.23
2022-12-25T13:12:12.979Z,15.55
2022-12-25T13:14:46.548Z,16.52
2022-12-25T13:17:19.926Z,16.27
2022-12-25T13:19:59.730Z,14.55
2022-12-25T13:22:33.108Z,17.23
2022-12-25T13:25:05.070Z,15.50
2022-12-25T13:27:34.183Z,19.15
2022-12-25T13:30:13.971Z,17.10
2022-12-25T13:32:42.876Z,16.02
2022-12-25T13:35:15.534Z,14.75
2022-12-25T13:37:44.084Z,17.48
2022-12-25T13:40:38.386Z,16.70
2022-12-25T13:43:06.433Z,17.25
2022-12-25T13:45:35.638Z,20.13
2022-12-25T13:48:16.346Z,21.55
2022-12-25T13:50:48.350Z,23.38
2022-12-25T13:53:18.227Z,28.05
2022-12-25T13:55:54.353Z,18.55
2022-12-25T13:58:31.521Z,18.90
2022-12-25T14:01:01.858Z,17.00
2022-12-25T14:03:41.962Z,16.27
2022-12-25T14:06:27.562Z,19.02
2022-12-25T14:08:58.236Z,19.55
2022-12-25T14:11:29.460Z,17.45
2022-12-25T14:14:03.781Z,20.23
2022-12-25T14:16:31.951Z,21.15
2022-12-25T14:19:02.327Z,20.95
2022-12-25T14:21:32.629Z,19.20
2022-12-25T14:24:00.964Z,19.77
2022-12-25T14:26:31.605Z,20.67
2022-12-25T14:29:05.397Z,21.67
2022-12-25T14:31:33.905Z,20.52
2022-12-25T14:34:03.755Z,19.77
2022-12-25T14:36:32.843Z,22.38
2022-12-25T14:39:04.851Z,19.33
2022-12-25T14:41:38.552Z,18.25
2022-12-25T14:44:39.527Z,18.95
2022-12-25T14:47:21.696Z,19.15
2022-12-25T14:49:50.057Z,20.35
2022-12-25T14:52:22.477Z,21.23
2022-12-25T14:55:15.836Z,21.90
2022-12-25T14:57:50.199Z,18.90
2022-12-25T15:00:27.729Z,21.85
2022-12-25T15:02:58.242Z,23.92
2022-12-25T15:05:37.863Z,26.40
2022-12-25T15:08:11.930Z,23.33
2022-12-25T15:13:30.301Z,21.95
2022-12-25T15:16:14.221Z,24.23
2022-12-25T15:18:44.863Z,22.65
2022-12-25T15:21:30.255Z,29.80
2022-12-25T15:24:00.177Z,29.63
2022-12-25T15:26:30.478Z,39.78
2022-12-25T15:28:58.916Z,27.75
2022-12-25T15:31:30.181Z,33.78
2022-12-25T15:34:01.671Z,32.38
2022-12-25T15:36:30.170Z,25.02
2022-12-25T15:38:58.242Z,23.65
2022-12-25T15:41:48.872Z,23.73
2022-12-25T15:44:17.488Z,21.05
2022-12-25T15:46:46.075Z,23.48
2022-12-25T15:49:15.315Z,18.98
2022-12-25T15:51:44.260Z,20.75
2022-12-25T15:54:12.331Z,30.27
2022-12-25T15:56:51.559Z,22.80
2022-12-25T15:59:20.503Z,22.60
2022-12-25T16:01:51.079Z,24.10
2022-12-25T16:04:19.361Z,23.73
2022-12-25T16:06:47.452Z,24.98
2022-12-25T16:09:16.844Z,24.60
2022-12-25T16:11:44.925Z,23.05
2022-12-25T16:14:13.202Z,26.45
2022-12-25T16:16:41.590Z,37.55
2022-12-25T16:19:09.553Z,32.05
2022-12-25T16:21:44.078Z,30.17
2022-12-25T16:24:12.481Z,29.13
2022-12-25T16:26:40.654Z,25.65
2022-12-25T16:29:08.732Z,24.73
2022-12-25T16:31:37.764Z,26.38
2022-12-25T16:34:06.900Z,27.02
2022-12-25T16:36:35.658Z,25.45
2022-12-25T16:39:04.889Z,27.60
2022-12-25T16:41:33.181Z,29.58
2022-12-25T16:44:11.080Z,27.58
2022-12-25T16:46:40.744Z,30.02
2022-12-25T16:49:08.827Z,31.95
2022-12-25T16:51:36.619Z,33.45
2022-12-25T16:54:04.681Z,33.67
2022-12-25T16:56:32.654Z,29.08
2022-12-25T16:59:00.941Z,29.52
2022-12-25T17:01:29.265Z,28.70
2022-12-25T17:04:01.573Z,30.98
2022-12-25T17:06:29.990Z,30.00
2022-12-25T17:09:00.313Z,26.20
2022-12-25T17:11:30.219Z,30.55
2022-12-25T17:14:02.091Z,30.30
2022-12-25T17:16:32.720Z,28.38
2022-12-25T17:19:04.309Z,29.42
2022-12-25T17:21:34.344Z,31.70
2022-12-25T17:24:04.445Z,35.13
2022-12-25T17:26:33.295Z,36.85
2022-12-25T17:29:01.392Z,35.33
2022-12-25T17:31:30.121Z,35.58
2022-12-25T17:33:59.696Z,39.00
2022-12-25T17:36:28.512Z,38.72
2022-12-25T17:38:56.675Z,45.33
2022-12-25T17:41:24.768Z,47.17
2022-12-25T17:43:52.760Z,53.22
2022-12-25T17:46:31.216Z,41.95
2022-12-25T17:49:01.378Z,45.92
2022-12-25T17:51:31.409Z,42.22
2022-12-25T17:54:03.277Z,45.95
2022-12-25T17:56:31.630Z,47.40
2022-12-25T17:59:03.635Z,46.38
2022-12-25T18:01:31.918Z,44.67
2022-12-25T18:04:00.340Z,41.28
2022-12-25T18:06:29.681Z,45.92
2022-12-25T18:08:58.953Z,45.15
2022-12-25T18:11:32.677Z,46.40
2022-12-25T18:14:03.661Z,44.05
2022-12-25T18:16:34.699Z,39.70
2022-12-25T18:19:03.113Z,49.08
2022-12-25T18:21:31.595Z,41.92
2022-12-25T18:23:59.864Z,60.22
2022-12-25T18:26:28.858Z,110.75
2022-12-25T18:28:57.954Z,94.53
2022-12-25T18:31:28.032Z,45.80
2022-12-25T18:33:58.521Z,62.10
2022-12-25T18:36:29.064Z,85.20
2022-12-25T18:38:57.829Z,74.30
2022-12-25T18:41:28.358Z,66.20
2022-12-25T18:43:56.826Z,59.88
2022-12-25T18:46:26.971Z,49.60
2022-12-25T18:48:56.584Z,65.00
2022-12-25T18:51:29.913Z,57.40
2022-12-25T18:54:03.834Z,61.20
2022-12-25T18:56:31.852Z,55.63
2022-12-25T18:59:00.769Z,59.92
2022-12-25T19:01:29.016Z,54.33
2022-12-25T19:04:04.547Z,60.70
2022-12-25T19:06:33.471Z,61.78
2022-12-25T19:09:08.587Z,64.35
2022-12-25T19:11:45.590Z,72.65
2022-12-25T19:14:15.179Z,65.40
2022-12-25T19:16:43.294Z,63.50
2022-12-25T19:19:11.513Z,76.10
2022-12-25T19:21:39.365Z,67.25
2022-12-25T19:24:07.527Z,66.60
2022-12-25T19:26:36.053Z,66.60
2022-12-25T19:29:04.188Z,56.22
2022-12-25T19:31:32.171Z,59.10
2022-12-25T19:34:00.190Z,60.55
2022-12-25T19:36:28.371Z,56.75
2022-12-25T19:38:56.561Z,55.28
2022-12-25T19:41:24.616Z,57.33
2022-12-25T19:43:52.619Z,56.15
2022-12-25T19:46:23.110Z,55.20
2022-12-25T19:48:52.147Z,60.35
2022-12-25T19:51:25.715Z,56.53
2022-12-25T19:53:56.525Z,59.35
2022-12-25T19:56:25.696Z,58.47
2022-12-25T19:58:54.232Z,58.90
2022-12-25T20:01:25.039Z,59.90
2022-12-25T20:03:53.587Z,51.72
2022-12-25T20:06:28.868Z,47.92
2022-12-25T20:09:20.881Z,48.65
2022-12-25T20:11:50.166Z,49.40
2022-12-25T20:14:19.795Z,48.70
2022-12-25T20:16:47.857Z,47.22
2022-12-25T20:19:16.092Z,42.10
2022-12-25T20:21:44.128Z,42.20
2022-12-25T20:24:12.558Z,43.15
2022-12-25T20:26:41.650Z,36.00
2022-12-25T20:29:09.599Z,36.15
2022-12-25T20:31:37.611Z,40.97
2022-12-25T20:34:08.311Z,39.47
2022-12-25T20:36:37.731Z,39.28
2022-12-25T20:39:10.053Z,40.17
2022-12-25T20:41:46.998Z,33.35
2022-12-25T20:44:15.258Z,37.08
2022-12-25T20:46:43.380Z,40.60
2022-12-25T20:49:11.598Z,39.38
2022-12-25T20:51:40.767Z,49.45
2022-12-25T20:54:10.408Z,62.03
2022-12-25T20:56:38.608Z,53.03
2022-12-25T20:59:06.866Z,47.47
2022-12-25T21:01:35.341Z,45.30
2022-12-25T21:04:04.058Z,46.13
2022-12-25T21:06:32.062Z,47.10
2022-12-25T21:09:00.199Z,45.17
2022-12-25T21:11:30.526Z,45.63
2022-12-25T21:13:59.126Z,41.00
2022-12-25T21:16:28.450Z,39.83
2022-12-25T21:18:56.386Z,41.10
2022-12-25T21:21:24.422Z,43.75
2022-12-25T21:23:54.755Z,40.17
2022-12-25T21:26:25.479Z,42.10
2022-12-25T21:29:00.222Z,39.55
2022-12-25T21:31:31.159Z,37.08
2022-12-25T21:33:59.518Z,35.78
2022-12-25T21:36:28.996Z,36.42
2022-12-25T21:39:05.105Z,33.78
2022-12-25T21:41:34.340Z,34.63
2022-12-25T21:44:02.534Z,38.72
2022-12-25T21:46:30.605Z,31.67
2022-12-25T21:48:59.020Z,29.70
2022-12-25T21:51:48.987Z,30.73
2022-12-25T21:54:18.691Z,28.27
2022-12-25T21:56:48.032Z,30.23
2022-12-25T21:59:21.451Z,28.90
2022-12-25T22:01:51.045Z,30.15
2022-12-25T22:04:21.777Z,27.77
2022-12-25T22:07:08.207Z,24.73
2022-12-25T22:09:36.840Z,24.58
2022-12-25T22:12:26.139Z,23.15
2022-12-25T22:15:03.008Z,19.77
2022-12-25T22:17:52.566Z,21.00
2022-12-25T22:20:24.135Z,16.98
2022-12-25T22:22:52.538Z,17.75
2022-12-25T22:25:20.732Z,18.45
2022-12-25T22:27:49.760Z,16.35
2022-12-25T22:30:27.164Z,16.40
2022-12-25T22:32:55.615Z,17.23
2022-12-25T22:35:24.276Z,18.00
2022-12-25T22:37:53.974Z,17.50
2022-12-25T22:40:22.263Z,18.92
2022-12-25T22:42:53.143Z,17.15
2022-12-25T22:45:21.203Z,18.23
2022-12-25T22:47:49.492Z,17.40
2022-12-25T22:50:17.512Z,18.83
2022-12-25T22:52:46.564Z,18.77
2022-12-25T22:55:18.378Z,15.90
2022-12-25T22:57:46.388Z,16.73
2022-12-25T23:00:14.547Z,16.48
2022-12-25T23:02:42.845Z,18.00
2022-12-25T23:05:10.972Z,17.58
2022-12-25T23:07:39.057Z,17.80
2022-12-25T23:10:07.675Z,15.68
2022-12-25T23:12:54.137Z,18.88
2022-12-25T23:15:22.275Z,15.57
2022-12-25T23:18:08.761Z,14.77
2022-12-25T23:20:55.973Z,16.60
2022-12-25T23:23:42.597Z,14.70
2022-12-25T23:26:11.266Z,15.15
2022-12-25T23:28:59.621Z,14.45
2022-12-25T23:31:31.565Z,16.38
2022-12-25T23:33:59.864Z,14.63
2022-12-25T23:36:28.732Z,15.20
2022-12-25T23:38:56.704Z,14.80
2022-12-25T23:41:25.529Z,13.77
2022-12-25T23:43:53.363Z,13.40
2022-12-25T23:46:21.239Z,13.85
2022-12-25T23:48:49.183Z,14.70
2022-12-25T23:51:18.579Z,18.38
2022-12-25T23:53:46.527Z,15.18
2022-12-25T23:56:14.828Z,15.48
2022-12-25T23:58:45.109Z,16.75
